sensor_id;sensor_type;location;lat;lon;timestamp;temperature;humidity
19292;DHT22;9779;51.756;7.450;2023-06-14T00:00:15;21.10;99.90
19292;DHT22;9779;51.756;7.450;2023-06-14T00:02:40;21.10;99.90
19292;DHT22;9779;51.756;7.450;2023-06-14T00:05:07;21.00;99.90
19292;DHT22;9779;51.756;7.450;2023-06-14T00:07:35;21.00;99.90
19292;DHT22;9779;51.756;7.450;2023-06-14T00:10:00;21.00;99.90
19292;DHT22;9779;51.756;7.450;2023-06-14T00:12:26;20.80;1.00
19292;DHT22;9779;51.756;7.450;2023-06-14T00:14:51;20.80;99.90
19292;DHT22;9779;51.756;7.450;2023-06-14T00:17:17;20.70;99.90
19292;DHT22;9779;51.756;7.450;2023-06-14T00:19:43;20.80;99.90
19292;DHT22;9779;51.756;7.450;2023-06-14T00:22:09;20.60;99.90
19292;DHT22;9779;51.756;7.450;2023-06-14T00:24:34;20.60;99.90
19292;DHT22;9779;51.756;7.450;2023-06-14T00:27:00;20.50;99.90
19292;DHT22;9779;51.756;7.450;2023-06-14T00:29:26;20.50;99.90
19292;DHT22;9779;51.756;7.450;2023-06-14T00:31:51;20.50;1.00
19292;DHT22;9779;51.756;7.450;2023-06-14T00:34:17;20.40;99.90
19292;DHT22;9779;51.756;7.450;2023-06-14T00:36:42;20.40;99.90
19292;DHT22;9779;51.756;7.450;2023-06-14T00:39:08;20.40;99.90
19292;DHT22;9779;51.756;7.450;2023-06-14T00:41:35;20.40;99.90
19292;DHT22;9779;51.756;7.450;2023-06-14T00:44:00;20.40;99.90
19292;DHT22;9779;51.756;7.450;2023-06-14T00:46:26;20.20;99.90
19292;DHT22;9779;51.756;7.450;2023-06-14T00:48:52;20.20;99.90
19292;DHT22;9779;51.756;7.450;2023-06-14T00:51:17;20.20;99.90
19292;DHT22;9779;51.756;7.450;2023-06-14T00:53:44;20.20;99.90
19292;DHT22;9779;51.756;7.450;2023-06-14T00:56:13;20.10;99.90
19292;DHT22;9779;51.756;7.450;2023-06-14T00:58:40;20.10;99.90
19292;DHT22;9779;51.756;7.450;2023-06-14T01:01:06;20.00;99.90
19292;DHT22;9779;51.756;7.450;2023-06-14T01:03:32;20.10;99.90
19292;DHT22;9779;51.756;7.450;2023-06-14T01:08:47;19.20;1.00
19292;DHT22;9779;51.756;7.450;2023-06-14T01:11:23;20.10;1.00
19292;DHT22;9779;51.756;7.450;2023-06-14T01:13:53;19.70;99.90
19292;DHT22;9779;51.756;7.450;2023-06-14T01:16:21;19.90;99.90
19292;DHT22;9779;51.756;7.450;2023-06-14T01:21:22;19.70;1.00
19292;DHT22;9779;51.756;7.450;2023-06-14T01:26:19;19.40;1.00
19292;DHT22;9779;51.756;7.450;2023-06-14T01:28:45;19.40;1.00
19292;DHT22;9779;51.756;7.450;2023-06-14T01:31:17;19.40;1.00
19292;DHT22;9779;51.756;7.450;2023-06-14T01:33:44;19.50;1.00
19292;DHT22;9779;51.756;7.450;2023-06-14T01:36:10;19.40;1.00
19292;DHT22;9779;51.756;7.450;2023-06-14T01:38:37;19.30;1.00
19292;DHT22;9779;51.756;7.450;2023-06-14T01:41:03;19.40;1.00
19292;DHT22;9779;51.756;7.450;2023-06-14T01:43:30;19.30;1.00
19292;DHT22;9779;51.756;7.450;2023-06-14T01:45:56;19.30;1.00
19292;DHT22;9779;51.756;7.450;2023-06-14T01:48:23;19.10;1.00
19292;DHT22;9779;51.756;7.450;2023-06-14T01:50:49;19.00;1.00
19292;DHT22;9779;51.756;7.450;2023-06-14T01:53:15;19.10;1.00
19292;DHT22;9779;51.756;7.450;2023-06-14T01:55:41;19.10;1.00
19292;DHT22;9779;51.756;7.450;2023-06-14T01:58:10;19.10;1.00
19292;DHT22;9779;51.756;7.450;2023-06-14T02:00:36;19.10;1.00
19292;DHT22;9779;51.756;7.450;2023-06-14T02:03:02;18.80;1.00
19292;DHT22;9779;51.756;7.450;2023-06-14T02:05:30;19.00;1.00
19292;DHT22;9779;51.756;7.450;2023-06-14T02:07:56;18.70;1.00
19292;DHT22;9779;51.756;7.450;2023-06-14T02:10:22;18.70;1.00
19292;DHT22;9779;51.756;7.450;2023-06-14T02:12:47;18.80;1.00
19292;DHT22;9779;51.756;7.450;2023-06-14T02:15:13;18.70;1.00
19292;DHT22;9779;51.756;7.450;2023-06-14T02:17:42;18.80;1.00
19292;DHT22;9779;51.756;7.450;2023-06-14T02:20:08;18.60;1.00
19292;DHT22;9779;51.756;7.450;2023-06-14T02:22:34;18.70;1.00
19292;DHT22;9779;51.756;7.450;2023-06-14T02:25:00;18.60;1.00
19292;DHT22;9779;51.756;7.450;2023-06-14T02:27:26;18.60;1.00
19292;DHT22;9779;51.756;7.450;2023-06-14T02:29:51;18.50;1.00
19292;DHT22;9779;51.756;7.450;2023-06-14T02:32:17;18.50;1.00
19292;DHT22;9779;51.756;7.450;2023-06-14T02:34:42;18.50;1.00
19292;DHT22;9779;51.756;7.450;2023-06-14T02:37:08;18.40;1.00
19292;DHT22;9779;51.756;7.450;2023-06-14T02:39:34;18.30;1.00
19292;DHT22;9779;51.756;7.450;2023-06-14T02:42:00;18.30;1.00
19292;DHT22;9779;51.756;7.450;2023-06-14T02:44:26;18.30;1.00
19292;DHT22;9779;51.756;7.450;2023-06-14T02:46:53;18.30;1.00
19292;DHT22;9779;51.756;7.450;2023-06-14T02:49:21;18.40;1.00
19292;DHT22;9779;51.756;7.450;2023-06-14T02:51:46;18.20;1.00
19292;DHT22;9779;51.756;7.450;2023-06-14T02:54:12;18.30;1.00
19292;DHT22;9779;51.756;7.450;2023-06-14T02:56:37;18.20;1.00
19292;DHT22;9779;51.756;7.450;2023-06-14T02:59:03;18.00;1.00
19292;DHT22;9779;51.756;7.450;2023-06-14T03:01:29;18.00;1.00
19292;DHT22;9779;51.756;7.450;2023-06-14T03:04:01;18.10;1.00
19292;DHT22;9779;51.756;7.450;2023-06-14T03:06:28;18.00;1.00
19292;DHT22;9779;51.756;7.450;2023-06-14T03:08:55;17.90;1.00
19292;DHT22;9779;51.756;7.450;2023-06-14T03:11:24;17.90;1.00
19292;DHT22;9779;51.756;7.450;2023-06-14T03:13:50;17.90;99.90
19292;DHT22;9779;51.756;7.450;2023-06-14T03:16:16;17.90;99.90
19292;DHT22;9779;51.756;7.450;2023-06-14T03:18:45;17.80;99.90
19292;DHT22;9779;51.756;7.450;2023-06-14T03:21:11;17.80;99.90
19292;DHT22;9779;51.756;7.450;2023-06-14T03:23:36;17.80;99.90
19292;DHT22;9779;51.756;7.450;2023-06-14T03:26:02;17.70;99.90
19292;DHT22;9779;51.756;7.450;2023-06-14T03:28:28;17.60;1.00
19292;DHT22;9779;51.756;7.450;2023-06-14T03:30:53;17.70;1.00
19292;DHT22;9779;51.756;7.450;2023-06-14T03:33:19;17.70;99.90
19292;DHT22;9779;51.756;7.450;2023-06-14T05:09:42;17.10;1.00
19292;DHT22;9779;51.756;7.450;2023-06-14T05:17:01;17.30;1.00
19292;DHT22;9779;51.756;7.450;2023-06-14T05:19:28;17.40;1.00
19292;DHT22;9779;51.756;7.450;2023-06-14T05:26:47;17.50;1.00
19292;DHT22;9779;51.756;7.450;2023-06-14T05:31:41;17.50;1.00
19292;DHT22;9779;51.756;7.450;2023-06-14T05:34:06;17.50;1.00
19292;DHT22;9779;51.756;7.450;2023-06-14T05:36:32;17.60;1.00
19292;DHT22;9779;51.756;7.450;2023-06-14T05:38:57;17.80;1.00
19292;DHT22;9779;51.756;7.450;2023-06-14T05:41:28;17.60;1.00
19292;DHT22;9779;51.756;7.450;2023-06-14T05:43:57;17.70;1.00
19292;DHT22;9779;51.756;7.450;2023-06-14T05:48:51;18.10;99.90
19292;DHT22;9779;51.756;7.450;2023-06-14T05:51:17;18.20;99.90
19292;DHT22;9779;51.756;7.450;2023-06-14T05:56:14;18.50;1.00
19292;DHT22;9779;51.756;7.450;2023-06-14T05:58:39;18.50;1.00
19292;DHT22;9779;51.756;7.450;2023-06-14T06:01:05;18.60;99.90
19292;DHT22;9779;51.756;7.450;2023-06-14T06:03:31;18.80;99.90
19292;DHT22;9779;51.756;7.450;2023-06-14T06:05:57;18.80;43.70
19292;DHT22;9779;51.756;7.450;2023-06-14T06:08:23;18.80;1.00
19292;DHT22;9779;51.756;7.450;2023-06-14T06:10:49;18.80;1.00
19292;DHT22;9779;51.756;7.450;2023-06-14T06:13:15;18.90;1.00
19292;DHT22;9779;51.756;7.450;2023-06-14T06:15:41;18.90;1.00
19292;DHT22;9779;51.756;7.450;2023-06-14T06:18:06;19.00;1.00
19292;DHT22;9779;51.756;7.450;2023-06-14T06:20:32;19.00;1.00
19292;DHT22;9779;51.756;7.450;2023-06-14T06:22:58;19.00;1.00
19292;DHT22;9779;51.756;7.450;2023-06-14T06:25:25;19.00;1.00
19292;DHT22;9779;51.756;7.450;2023-06-14T06:27:52;19.10;1.00
19292;DHT22;9779;51.756;7.450;2023-06-14T06:30:18;19.00;1.00
19292;DHT22;9779;51.756;7.450;2023-06-14T06:32:44;19.00;1.00
19292;DHT22;9779;51.756;7.450;2023-06-14T06:35:10;19.20;1.00
19292;DHT22;9779;51.756;7.450;2023-06-14T06:37:36;19.20;1.00
19292;DHT22;9779;51.756;7.450;2023-06-14T06:40:02;19.20;1.00
19292;DHT22;9779;51.756;7.450;2023-06-14T06:42:31;19.40;1.00
19292;DHT22;9779;51.756;7.450;2023-06-14T06:44:57;19.40;1.00
19292;DHT22;9779;51.756;7.450;2023-06-14T06:47:22;19.50;1.00
19292;DHT22;9779;51.756;7.450;2023-06-14T06:49:48;19.50;1.00
19292;DHT22;9779;51.756;7.450;2023-06-14T06:52:13;19.50;1.00
19292;DHT22;9779;51.756;7.450;2023-06-14T06:54:39;19.60;1.00
19292;DHT22;9779;51.756;7.450;2023-06-14T06:57:05;19.60;1.00
19292;DHT22;9779;51.756;7.450;2023-06-14T06:59:31;19.70;1.00
19292;DHT22;9779;51.756;7.450;2023-06-14T07:01:57;19.80;1.00
19292;DHT22;9779;51.756;7.450;2023-06-14T07:04:23;19.80;1.00
19292;DHT22;9779;51.756;7.450;2023-06-14T07:06:48;19.80;1.00
19292;DHT22;9779;51.756;7.450;2023-06-14T07:09:14;19.80;1.00
19292;DHT22;9779;51.756;7.450;2023-06-14T07:11:42;19.80;1.00
19292;DHT22;9779;51.756;7.450;2023-06-14T07:14:07;19.90;1.00
19292;DHT22;9779;51.756;7.450;2023-06-14T07:16:33;20.00;1.00
19292;DHT22;9779;51.756;7.450;2023-06-14T07:18:59;20.00;1.00
19292;DHT22;9779;51.756;7.450;2023-06-14T07:21:25;20.10;1.00
19292;DHT22;9779;51.756;7.450;2023-06-14T07:23:52;20.10;1.00
19292;DHT22;9779;51.756;7.450;2023-06-14T07:26:18;20.10;1.00
19292;DHT22;9779;51.756;7.450;2023-06-14T07:28:43;20.30;1.00
19292;DHT22;9779;51.756;7.450;2023-06-14T07:31:10;20.30;1.00
19292;DHT22;9779;51.756;7.450;2023-06-14T07:33:36;20.40;1.00
19292;DHT22;9779;51.756;7.450;2023-06-14T07:36:02;20.40;1.00
19292;DHT22;9779;51.756;7.450;2023-06-14T07:38:28;20.40;1.00
19292;DHT22;9779;51.756;7.450;2023-06-14T07:40:54;20.50;1.00
19292;DHT22;9779;51.756;7.450;2023-06-14T07:43:19;20.60;1.00
19292;DHT22;9779;51.756;7.450;2023-06-14T07:45:45;20.70;1.00
19292;DHT22;9779;51.756;7.450;2023-06-14T07:48:11;20.80;1.00
19292;DHT22;9779;51.756;7.450;2023-06-14T07:50:36;20.90;1.00
19292;DHT22;9779;51.756;7.450;2023-06-14T07:53:02;21.10;1.00
19292;DHT22;9779;51.756;7.450;2023-06-14T07:55:27;21.10;1.00
19292;DHT22;9779;51.756;7.450;2023-06-14T07:57:54;21.20;1.00
19292;DHT22;9779;51.756;7.450;2023-06-14T08:00:20;21.20;99.90
19292;DHT22;9779;51.756;7.450;2023-06-14T08:02:46;21.40;99.90
19292;DHT22;9779;51.756;7.450;2023-06-14T08:05:12;21.40;99.90
19292;DHT22;9779;51.756;7.450;2023-06-14T08:07:38;21.50;99.90
19292;DHT22;9779;51.756;7.450;2023-06-14T08:10:05;21.50;99.90
19292;DHT22;9779;51.756;7.450;2023-06-14T08:12:32;21.50;99.90
19292;DHT22;9779;51.756;7.450;2023-06-14T08:14:58;21.50;99.90
19292;DHT22;9779;51.756;7.450;2023-06-14T08:17:23;21.60;99.90
19292;DHT22;9779;51.756;7.450;2023-06-14T08:19:49;21.70;99.90
19292;DHT22;9779;51.756;7.450;2023-06-14T08:22:15;21.80;99.90
19292;DHT22;9779;51.756;7.450;2023-06-14T08:24:40;21.80;99.90
19292;DHT22;9779;51.756;7.450;2023-06-14T08:27:06;21.90;99.90
19292;DHT22;9779;51.756;7.450;2023-06-14T08:29:32;21.90;99.90
19292;DHT22;9779;51.756;7.450;2023-06-14T08:31:58;22.10;99.90
19292;DHT22;9779;51.756;7.450;2023-06-14T08:34:23;22.00;99.90
19292;DHT22;9779;51.756;7.450;2023-06-14T08:36:52;22.20;99.90
19292;DHT22;9779;51.756;7.450;2023-06-14T08:39:17;22.20;99.90
19292;DHT22;9779;51.756;7.450;2023-06-14T08:41:46;22.20;1.00
19292;DHT22;9779;51.756;7.450;2023-06-14T08:44:15;22.30;1.00
19292;DHT22;9779;51.756;7.450;2023-06-14T08:46:41;22.40;1.00
19292;DHT22;9779;51.756;7.450;2023-06-14T08:49:08;22.50;1.00
19292;DHT22;9779;51.756;7.450;2023-06-14T08:51:36;22.60;1.00
19292;DHT22;9779;51.756;7.450;2023-06-14T08:54:03;22.60;1.00
19292;DHT22;9779;51.756;7.450;2023-06-14T08:56:30;22.70;1.00
19292;DHT22;9779;51.756;7.450;2023-06-14T08:58:57;22.90;1.00
19292;DHT22;9779;51.756;7.450;2023-06-14T09:01:26;23.10;1.00
19292;DHT22;9779;51.756;7.450;2023-06-14T09:03:52;23.10;1.00
19292;DHT22;9779;51.756;7.450;2023-06-14T09:06:21;23.10;1.00
19292;DHT22;9779;51.756;7.450;2023-06-14T09:08:49;23.20;1.00
19292;DHT22;9779;51.756;7.450;2023-06-14T09:11:16;22.90;1.00
19292;DHT22;9779;51.756;7.450;2023-06-14T09:13:44;23.30;1.00
19292;DHT22;9779;51.756;7.450;2023-06-14T09:16:10;23.30;99.90
19292;DHT22;9779;51.756;7.450;2023-06-14T09:18:41;23.30;99.90
19292;DHT22;9779;51.756;7.450;2023-06-14T09:21:08;23.40;99.90
19292;DHT22;9779;51.756;7.450;2023-06-14T09:23:42;23.50;99.90
19292;DHT22;9779;51.756;7.450;2023-06-14T09:26:12;23.60;99.90
19292;DHT22;9779;51.756;7.450;2023-06-14T09:28:45;23.80;99.90
19292;DHT22;9779;51.756;7.450;2023-06-14T09:31:12;23.90;99.90
19292;DHT22;9779;51.756;7.450;2023-06-14T09:33:37;24.00;99.90
19292;DHT22;9779;51.756;7.450;2023-06-14T09:36:04;24.10;1.00
19292;DHT22;9779;51.756;7.450;2023-06-14T09:38:34;24.10;99.90
19292;DHT22;9779;51.756;7.450;2023-06-14T09:41:04;24.20;99.90
19292;DHT22;9779;51.756;7.450;2023-06-14T09:43:30;24.40;99.90
19292;DHT22;9779;51.756;7.450;2023-06-14T09:46:00;24.40;99.90
19292;DHT22;9779;51.756;7.450;2023-06-14T09:48:26;24.70;1.00
19292;DHT22;9779;51.756;7.450;2023-06-14T09:50:51;24.60;1.00
19292;DHT22;9779;51.756;7.450;2023-06-14T09:53:21;24.80;1.00
19292;DHT22;9779;51.756;7.450;2023-06-14T09:55:49;25.10;1.00
19292;DHT22;9779;51.756;7.450;2023-06-14T09:58:16;25.10;1.00
19292;DHT22;9779;51.756;7.450;2023-06-14T10:00:45;25.20;1.00
19292;DHT22;9779;51.756;7.450;2023-06-14T10:03:17;25.00;1.00
19292;DHT22;9779;51.756;7.450;2023-06-14T10:05:46;25.20;1.00
19292;DHT22;9779;51.756;7.450;2023-06-14T10:08:17;25.40;1.00
19292;DHT22;9779;51.756;7.450;2023-06-14T10:10:43;25.10;1.00
19292;DHT22;9779;51.756;7.450;2023-06-14T10:13:12;25.60;99.90
19292;DHT22;9779;51.756;7.450;2023-06-14T10:18:59;25.90;1.00
19292;DHT22;9779;51.756;7.450;2023-06-14T10:21:36;26.00;1.00
19292;DHT22;9779;51.756;7.450;2023-06-14T10:24:06;26.20;1.00
19292;DHT22;9779;51.756;7.450;2023-06-14T10:26:34;26.00;1.00
19292;DHT22;9779;51.756;7.450;2023-06-14T10:29:01;26.20;99.90
19292;DHT22;9779;51.756;7.450;2023-06-14T10:31:47;26.50;99.90
19292;DHT22;9779;51.756;7.450;2023-06-14T10:34:24;26.60;99.90
19292;DHT22;9779;51.756;7.450;2023-06-14T10:37:12;26.60;99.90
19292;DHT22;9779;51.756;7.450;2023-06-14T10:39:40;26.60;99.90
19292;DHT22;9779;51.756;7.450;2023-06-14T10:42:06;26.70;99.90
19292;DHT22;9779;51.756;7.450;2023-06-14T10:44:33;26.60;99.90
19292;DHT22;9779;51.756;7.450;2023-06-14T10:46:59;26.90;99.90
19292;DHT22;9779;51.756;7.450;2023-06-14T10:49:42;27.10;1.00
19292;DHT22;9779;51.756;7.450;2023-06-14T10:52:13;27.30;1.00
19292;DHT22;9779;51.756;7.450;2023-06-14T10:57:55;27.30;1.00
19292;DHT22;9779;51.756;7.450;2023-06-14T11:00:25;27.50;99.90
19292;DHT22;9779;51.756;7.450;2023-06-14T11:18:23;28.20;99.90
19292;DHT22;9779;51.756;7.450;2023-06-14T11:20:53;28.20;99.90
19292;DHT22;9779;51.756;7.450;2023-06-14T11:23:19;28.30;99.90
19292;DHT22;9779;51.756;7.450;2023-06-14T11:25:51;28.40;99.90
19292;DHT22;9779;51.756;7.450;2023-06-14T11:28:17;28.60;99.90
19292;DHT22;9779;51.756;7.450;2023-06-14T11:30:45;28.60;1.00
19292;DHT22;9779;51.756;7.450;2023-06-14T11:33:10;28.70;1.00
19292;DHT22;9779;51.756;7.450;2023-06-14T11:45:25;29.50;45.20
19292;DHT22;9779;51.756;7.450;2023-06-14T11:47:53;29.30;2.40
19292;DHT22;9779;51.756;7.450;2023-06-14T11:50:19;29.50;1.00
19292;DHT22;9779;51.756;7.450;2023-06-14T11:52:45;29.50;1.00
19292;DHT22;9779;51.756;7.450;2023-06-14T11:55:17;29.40;1.00
19292;DHT22;9779;51.756;7.450;2023-06-14T11:57:42;29.60;1.00
19292;DHT22;9779;51.756;7.450;2023-06-14T12:00:09;29.90;1.00
19292;DHT22;9779;51.756;7.450;2023-06-14T12:02:38;30.10;99.90
19292;DHT22;9779;51.756;7.450;2023-06-14T12:05:07;30.10;99.90
19292;DHT22;9779;51.756;7.450;2023-06-14T12:07:38;30.30;99.90
19292;DHT22;9779;51.756;7.450;2023-06-14T12:10:08;30.20;99.90
19292;DHT22;9779;51.756;7.450;2023-06-14T12:12:37;30.20;99.90
19292;DHT22;9779;51.756;7.450;2023-06-14T12:15:04;30.40;99.90
19292;DHT22;9779;51.756;7.450;2023-06-14T12:17:33;30.30;99.90
19292;DHT22;9779;51.756;7.450;2023-06-14T12:19:59;30.40;99.90
19292;DHT22;9779;51.756;7.450;2023-06-14T12:22:24;30.60;99.90
19292;DHT22;9779;51.756;7.450;2023-06-14T12:24:50;30.70;99.90
19292;DHT22;9779;51.756;7.450;2023-06-14T12:27:17;30.80;99.90
19292;DHT22;9779;51.756;7.450;2023-06-14T12:29:44;30.70;99.90
19292;DHT22;9779;51.756;7.450;2023-06-14T12:32:10;30.70;99.90
19292;DHT22;9779;51.756;7.450;2023-06-14T12:34:36;30.80;99.90
19292;DHT22;9779;51.756;7.450;2023-06-14T12:37:02;31.10;99.90
19292;DHT22;9779;51.756;7.450;2023-06-14T12:39:29;31.30;99.90
19292;DHT22;9779;51.756;7.450;2023-06-14T12:41:57;31.30;99.90
19292;DHT22;9779;51.756;7.450;2023-06-14T12:44:22;31.30;99.90
19292;DHT22;9779;51.756;7.450;2023-06-14T12:46:48;31.40;99.90
19292;DHT22;9779;51.756;7.450;2023-06-14T12:49:17;31.40;99.90
19292;DHT22;9779;51.756;7.450;2023-06-14T12:51:43;31.50;99.90
19292;DHT22;9779;51.756;7.450;2023-06-14T12:54:09;31.60;99.90
19292;DHT22;9779;51.756;7.450;2023-06-14T12:56:34;31.70;99.90
19292;DHT22;9779;51.756;7.450;2023-06-14T12:59:00;31.70;99.90
19292;DHT22;9779;51.756;7.450;2023-06-14T13:01:26;31.40;99.90
19292;DHT22;9779;51.756;7.450;2023-06-14T13:03:51;31.30;99.90
19292;DHT22;9779;51.756;7.450;2023-06-14T13:06:21;31.60;99.90
19292;DHT22;9779;51.756;7.450;2023-06-14T13:08:47;31.60;99.90
19292;DHT22;9779;51.756;7.450;2023-06-14T13:11:13;31.80;99.90
19292;DHT22;9779;51.756;7.450;2023-06-14T13:13:39;32.00;99.90
19292;DHT22;9779;51.756;7.450;2023-06-14T13:16:04;32.30;1.00
19292;DHT22;9779;51.756;7.450;2023-06-14T13:23:26;32.40;99.90
19292;DHT22;9779;51.756;7.450;2023-06-14T13:25:52;32.20;99.90
19292;DHT22;9779;51.756;7.450;2023-06-14T13:28:17;32.20;99.90
19292;DHT22;9779;51.756;7.450;2023-06-14T13:30:43;32.30;99.90
19292;DHT22;9779;51.756;7.450;2023-06-14T13:40:32;32.90;99.90
19292;DHT22;9779;51.756;7.450;2023-06-14T13:42:57;32.90;99.90
19292;DHT22;9779;51.756;7.450;2023-06-14T13:45:23;33.00;99.90
19292;DHT22;9779;51.756;7.450;2023-06-14T13:47:48;33.10;1.00
19292;DHT22;9779;51.756;7.450;2023-06-14T13:50:14;33.20;1.00
19292;DHT22;9779;51.756;7.450;2023-06-14T13:52:40;33.10;1.00
19292;DHT22;9779;51.756;7.450;2023-06-14T13:55:06;32.40;99.90
19292;DHT22;9779;51.756;7.450;2023-06-14T13:57:32;32.50;99.90
19292;DHT22;9779;51.756;7.450;2023-06-14T13:59:58;32.50;99.90
19292;DHT22;9779;51.756;7.450;2023-06-14T14:02:27;32.70;99.90
19292;DHT22;9779;51.756;7.450;2023-06-14T14:04:54;32.90;99.90
19292;DHT22;9779;51.756;7.450;2023-06-14T14:07:20;33.00;99.90
19292;DHT22;9779;51.756;7.450;2023-06-14T14:09:46;33.30;99.90
19292;DHT22;9779;51.756;7.450;2023-06-14T14:12:12;33.30;99.90
19292;DHT22;9779;51.756;7.450;2023-06-14T14:14:39;33.10;99.90
19292;DHT22;9779;51.756;7.450;2023-06-14T14:17:05;33.20;99.90
19292;DHT22;9779;51.756;7.450;2023-06-14T14:19:32;33.30;99.90
19292;DHT22;9779;51.756;7.450;2023-06-14T14:21:58;33.30;99.90
19292;DHT22;9779;51.756;7.450;2023-06-14T14:24:23;33.30;99.90
19292;DHT22;9779;51.756;7.450;2023-06-14T14:26:49;33.50;99.90
19292;DHT22;9779;51.756;7.450;2023-06-14T14:29:15;33.30;99.90
19292;DHT22;9779;51.756;7.450;2023-06-14T14:31:41;33.30;99.90
19292;DHT22;9779;51.756;7.450;2023-06-14T14:34:06;33.40;99.90
19292;DHT22;9779;51.756;7.450;2023-06-14T14:36:32;33.10;99.90
19292;DHT22;9779;51.756;7.450;2023-06-14T14:39:03;32.50;99.90
19292;DHT22;9779;51.756;7.450;2023-06-14T14:41:29;32.00;99.90
19292;DHT22;9779;51.756;7.450;2023-06-14T14:43:55;31.70;99.90
19292;DHT22;9779;51.756;7.450;2023-06-14T14:46:20;31.50;99.90
19292;DHT22;9779;51.756;7.450;2023-06-14T14:48:46;31.30;99.90
19292;DHT22;9779;51.756;7.450;2023-06-14T14:51:11;31.70;99.90
19292;DHT22;9779;51.756;7.450;2023-06-14T14:53:37;32.10;99.90
19292;DHT22;9779;51.756;7.450;2023-06-14T14:56:03;32.40;99.90
19292;DHT22;9779;51.756;7.450;2023-06-14T14:58:28;32.70;99.90
19292;DHT22;9779;51.756;7.450;2023-06-14T15:00:54;32.70;99.90
19292;DHT22;9779;51.756;7.450;2023-06-14T15:03:20;32.50;99.90
19292;DHT22;9779;51.756;7.450;2023-06-14T15:05:46;32.10;99.90
19292;DHT22;9779;51.756;7.450;2023-06-14T15:08:12;31.50;99.90
19292;DHT22;9779;51.756;7.450;2023-06-14T15:10:40;31.30;99.90
19292;DHT22;9779;51.756;7.450;2023-06-14T15:13:09;31.40;99.90
19292;DHT22;9779;51.756;7.450;2023-06-14T15:15:36;31.90;99.90
19292;DHT22;9779;51.756;7.450;2023-06-14T15:18:01;32.10;99.90
19292;DHT22;9779;51.756;7.450;2023-06-14T15:20:27;32.30;99.90
19292;DHT22;9779;51.756;7.450;2023-06-14T15:22:54;32.40;99.90
19292;DHT22;9779;51.756;7.450;2023-06-14T15:25:28;32.70;99.90
19292;DHT22;9779;51.756;7.450;2023-06-14T15:27:54;32.90;1.00
19292;DHT22;9779;51.756;7.450;2023-06-14T15:30:20;33.00;1.00
19292;DHT22;9779;51.756;7.450;2023-06-14T15:32:45;32.90;1.00
19292;DHT22;9779;51.756;7.450;2023-06-14T15:35:11;32.90;1.00
19292;DHT22;9779;51.756;7.450;2023-06-14T15:37:37;33.10;1.00
19292;DHT22;9779;51.756;7.450;2023-06-14T15:40:04;33.00;1.00
19292;DHT22;9779;51.756;7.450;2023-06-14T15:42:30;33.20;1.00
19292;DHT22;9779;51.756;7.450;2023-06-14T15:44:55;33.30;1.00
19292;DHT22;9779;51.756;7.450;2023-06-14T15:59:35;32.60;99.90
19292;DHT22;9779;51.756;7.450;2023-06-14T16:06:57;32.60;99.90
19292;DHT22;9779;51.756;7.450;2023-06-14T16:09:22;32.70;99.90
19292;DHT22;9779;51.756;7.450;2023-06-14T16:11:48;32.80;99.90
19292;DHT22;9779;51.756;7.450;2023-06-14T16:14:14;32.90;99.90
19292;DHT22;9779;51.756;7.450;2023-06-14T16:16:40;32.80;99.90
19292;DHT22;9779;51.756;7.450;2023-06-14T16:19:05;32.90;99.90
19292;DHT22;9779;51.756;7.450;2023-06-14T16:21:31;32.90;99.90
19292;DHT22;9779;51.756;7.450;2023-06-14T16:24:02;33.10;99.90
19292;DHT22;9779;51.756;7.450;2023-06-14T16:26:28;32.90;99.90
19292;DHT22;9779;51.756;7.450;2023-06-14T16:28:53;32.80;99.90
19292;DHT22;9779;51.756;7.450;2023-06-14T16:31:19;32.40;99.90
19292;DHT22;9779;51.756;7.450;2023-06-14T16:33:47;32.20;99.90
19292;DHT22;9779;51.756;7.450;2023-06-14T16:36:13;32.30;99.90
19292;DHT22;9779;51.756;7.450;2023-06-14T16:38:38;32.10;99.90
19292;DHT22;9779;51.756;7.450;2023-06-14T16:41:04;32.10;99.90
19292;DHT22;9779;51.756;7.450;2023-06-14T16:43:30;31.90;99.90
19292;DHT22;9779;51.756;7.450;2023-06-14T16:45:55;31.40;99.90
19292;DHT22;9779;51.756;7.450;2023-06-14T16:48:21;31.00;99.90
19292;DHT22;9779;51.756;7.450;2023-06-14T16:50:46;31.00;99.90
19292;DHT22;9779;51.756;7.450;2023-06-14T16:53:12;31.10;99.90
19292;DHT22;9779;51.756;7.450;2023-06-14T16:55:38;31.20;99.90
19292;DHT22;9779;51.756;7.450;2023-06-14T16:58:03;31.20;99.90
19292;DHT22;9779;51.756;7.450;2023-06-14T17:00:29;31.30;99.90
19292;DHT22;9779;51.756;7.450;2023-06-14T17:02:54;31.40;99.90
19292;DHT22;9779;51.756;7.450;2023-06-14T17:05:23;31.50;99.90
19292;DHT22;9779;51.756;7.450;2023-06-14T17:07:48;31.50;76.00
19292;DHT22;9779;51.756;7.450;2023-06-14T17:10:14;31.40;76.90
19292;DHT22;9779;51.756;7.450;2023-06-14T17:12:41;31.40;49.30
19292;DHT22;9779;51.756;7.450;2023-06-14T17:15:07;31.40;47.90
19292;DHT22;9779;51.756;7.450;2023-06-14T17:17:32;31.50;41.60
19292;DHT22;9779;51.756;7.450;2023-06-14T17:19:58;31.20;23.90
19292;DHT22;9779;51.756;7.450;2023-06-14T17:22:23;31.00;26.00
19292;DHT22;9779;51.756;7.450;2023-06-14T17:24:49;31.10;14.70
19292;DHT22;9779;51.756;7.450;2023-06-14T17:27:14;30.80;42.90
19292;DHT22;9779;51.756;7.450;2023-06-14T17:29:41;30.80;15.00
19292;DHT22;9779;51.756;7.450;2023-06-14T17:32:07;30.90;18.70
19292;DHT22;9779;51.756;7.450;2023-06-14T17:34:33;30.70;19.10
19292;DHT22;9779;51.756;7.450;2023-06-14T17:36:59;30.60;9.90
19292;DHT22;9779;51.756;7.450;2023-06-14T17:39:24;30.70;14.20
19292;DHT22;9779;51.756;7.450;2023-06-14T17:41:50;30.50;17.00
19292;DHT22;9779;51.756;7.450;2023-06-14T17:44:15;30.60;22.40
19292;DHT22;9779;51.756;7.450;2023-06-14T17:46:41;30.30;33.20
19292;DHT22;9779;51.756;7.450;2023-06-14T17:49:07;29.90;80.90
19292;DHT22;9779;51.756;7.450;2023-06-14T17:51:32;30.00;99.90
19292;DHT22;9779;51.756;7.450;2023-06-14T17:53:58;29.80;99.90
19292;DHT22;9779;51.756;7.450;2023-06-14T17:58:50;29.70;99.90
19292;DHT22;9779;51.756;7.450;2023-06-14T18:01:16;29.60;99.90
19292;DHT22;9779;51.756;7.450;2023-06-14T18:03:44;29.50;99.90
19292;DHT22;9779;51.756;7.450;2023-06-14T18:08:36;29.30;99.90
19292;DHT22;9779;51.756;7.450;2023-06-14T18:11:01;29.30;99.90
19292;DHT22;9779;51.756;7.450;2023-06-14T18:13:27;29.20;99.90
19292;DHT22;9779;51.756;7.450;2023-06-14T18:15:52;29.20;99.90
19292;DHT22;9779;51.756;7.450;2023-06-14T18:18:18;29.40;99.90
19292;DHT22;9779;51.756;7.450;2023-06-14T18:20:44;29.00;99.90
19292;DHT22;9779;51.756;7.450;2023-06-14T19:25:59;26.40;99.90
19292;DHT22;9779;51.756;7.450;2023-06-14T19:28:25;26.40;99.90
19292;DHT22;9779;51.756;7.450;2023-06-14T19:30:51;26.00;81.20
19292;DHT22;9779;51.756;7.450;2023-06-14T19:33:16;26.10;45.90
19292;DHT22;9779;51.756;7.450;2023-06-14T19:35:42;26.20;40.40
19292;DHT22;9779;51.756;7.450;2023-06-14T19:38:08;26.00;40.10
19292;DHT22;9779;51.756;7.450;2023-06-14T19:40:38;25.70;19.20
19292;DHT22;9779;51.756;7.450;2023-06-14T19:43:03;25.60;1.00
19292;DHT22;9779;51.756;7.450;2023-06-14T19:45:29;25.40;1.00
19292;DHT22;9779;51.756;7.450;2023-06-14T19:47:54;25.80;1.40
19292;DHT22;9779;51.756;7.450;2023-06-14T19:50:20;25.40;1.50
19292;DHT22;9779;51.756;7.450;2023-06-14T19:55:14;25.00;99.90
19292;DHT22;9779;51.756;7.450;2023-06-14T20:07:40;24.80;1.00